sensor_id;sensor_type;location;lat;lon;timestamp;P1;durP1;ratioP1;P2;durP2;ratioP2
79697;SDS011;69168;42.708;23.286;2023-04-19T00:00:02;2.45;;;1.38;;
79697;SDS011;69168;42.708;23.286;2023-04-19T00:02:32;4.53;;;1.90;;
79697;SDS011;69168;42.708;23.286;2023-04-19T00:04:58;3.65;;;1.48;;
79697;SDS011;69168;42.708;23.286;2023-04-19T00:07:23;2.53;;;1.48;;
79697;SDS011;69168;42.708;23.286;2023-04-19T00:09:49;3.17;;;1.80;;
79697;SDS011;69168;42.708;23.286;2023-04-19T00:12:14;2.42;;;1.50;;
79697;SDS011;69168;42.708;23.286;2023-04-19T00:14:39;1.20;;;0.95;;
79697;SDS011;69168;42.708;23.286;2023-04-19T00:17:05;1.70;;;1.33;;
79697;SDS011;69168;42.708;23.286;2023-04-19T00:19:30;1.48;;;1.05;;
79697;SDS011;69168;42.708;23.286;2023-04-19T00:21:56;1.50;;;1.27;;
79697;SDS011;69168;42.708;23.286;2023-04-19T00:24:21;2.15;;;1.23;;
79697;SDS011;69168;42.708;23.286;2023-04-19T00:26:47;2.13;;;1.60;;
79697;SDS011;69168;42.708;23.286;2023-04-19T00:29:12;2.53;;;1.40;;
79697;SDS011;69168;42.708;23.286;2023-04-19T00:31:37;1.73;;;1.10;;
79697;SDS011;69168;42.708;23.286;2023-04-19T00:34:03;2.10;;;1.10;;
79697;SDS011;69168;42.708;23.286;2023-04-19T00:36:30;1.17;;;0.82;;
79697;SDS011;69168;42.708;23.286;2023-04-19T00:38:55;2.30;;;1.15;;
79697;SDS011;69168;42.708;23.286;2023-04-19T00:41:21;2.58;;;1.58;;
79697;SDS011;69168;42.708;23.286;2023-04-19T00:43:46;1.35;;;0.90;;
79697;SDS011;69168;42.708;23.286;2023-04-19T00:46:12;3.63;;;1.15;;
79697;SDS011;69168;42.708;23.286;2023-04-19T00:51:04;1.40;;;1.00;;
79697;SDS011;69168;42.708;23.286;2023-04-19T00:53:30;3.67;;;1.50;;
79697;SDS011;69168;42.708;23.286;2023-04-19T00:55:56;2.33;;;1.42;;
79697;SDS011;69168;42.708;23.286;2023-04-19T00:58:24;2.70;;;1.30;;
79697;SDS011;69168;42.708;23.286;2023-04-19T01:00:49;3.17;;;1.45;;
79697;SDS011;69168;42.708;23.286;2023-04-19T01:03:15;2.33;;;1.20;;
79697;SDS011;69168;42.708;23.286;2023-04-19T01:05:40;3.33;;;1.40;;
79697;SDS011;69168;42.708;23.286;2023-04-19T01:08:06;2.53;;;1.52;;
79697;SDS011;69168;42.708;23.286;2023-04-19T01:10:32;2.33;;;1.58;;
79697;SDS011;69168;42.708;23.286;2023-04-19T01:12:58;1.77;;;1.40;;
79697;SDS011;69168;42.708;23.286;2023-04-19T01:15:23;2.40;;;1.48;;
79697;SDS011;69168;42.708;23.286;2023-04-19T01:17:49;1.25;;;1.10;;
79697;SDS011;69168;42.708;23.286;2023-04-19T01:20:15;2.42;;;1.25;;
79697;SDS011;69168;42.708;23.286;2023-04-19T01:22:40;2.30;;;1.63;;
79697;SDS011;69168;42.708;23.286;2023-04-19T01:25:06;2.63;;;1.60;;
79697;SDS011;69168;42.708;23.286;2023-04-19T01:27:32;2.17;;;1.52;;
79697;SDS011;69168;42.708;23.286;2023-04-19T01:29:58;3.13;;;2.08;;
79697;SDS011;69168;42.708;23.286;2023-04-19T01:32:23;2.33;;;1.33;;
79697;SDS011;69168;42.708;23.286;2023-04-19T01:34:50;2.83;;;1.40;;
79697;SDS011;69168;42.708;23.286;2023-04-19T01:37:16;3.42;;;2.00;;
79697;SDS011;69168;42.708;23.286;2023-04-19T01:39:42;2.15;;;1.75;;
79697;SDS011;69168;42.708;23.286;2023-04-19T01:42:07;2.50;;;1.73;;
79697;SDS011;69168;42.708;23.286;2023-04-19T01:44:32;2.45;;;1.70;;
79697;SDS011;69168;42.708;23.286;2023-04-19T01:46:58;1.60;;;1.27;;
79697;SDS011;69168;42.708;23.286;2023-04-19T01:49:23;2.25;;;1.83;;
79697;SDS011;69168;42.708;23.286;2023-04-19T01:51:49;2.35;;;1.55;;
79697;SDS011;69168;42.708;23.286;2023-04-19T01:54:14;2.20;;;1.83;;
79697;SDS011;69168;42.708;23.286;2023-04-19T01:56:40;2.75;;;2.05;;
79697;SDS011;69168;42.708;23.286;2023-04-19T01:59:05;3.17;;;1.70;;
79697;SDS011;69168;42.708;23.286;2023-04-19T02:01:31;2.72;;;1.95;;
79697;SDS011;69168;42.708;23.286;2023-04-19T02:03:56;4.28;;;1.90;;
79697;SDS011;69168;42.708;23.286;2023-04-19T02:06:21;3.70;;;1.95;;
79697;SDS011;69168;42.708;23.286;2023-04-19T02:08:47;3.22;;;2.00;;
79697;SDS011;69168;42.708;23.286;2023-04-19T02:11:12;3.55;;;1.90;;
79697;SDS011;69168;42.708;23.286;2023-04-19T02:13:38;3.90;;;2.03;;
79697;SDS011;69168;42.708;23.286;2023-04-19T02:16:05;2.85;;;2.03;;
79697;SDS011;69168;42.708;23.286;2023-04-19T02:18:31;2.65;;;1.90;;
79697;SDS011;69168;42.708;23.286;2023-04-19T02:20:59;3.42;;;1.98;;
79697;SDS011;69168;42.708;23.286;2023-04-19T02:23:25;2.88;;;1.98;;
79697;SDS011;69168;42.708;23.286;2023-04-19T02:25:50;2.53;;;2.33;;
79697;SDS011;69168;42.708;23.286;2023-04-19T02:28:16;3.25;;;2.13;;
79697;SDS011;69168;42.708;23.286;2023-04-19T02:30:41;3.10;;;2.00;;
79697;SDS011;69168;42.708;23.286;2023-04-19T02:33:07;4.95;;;2.50;;
79697;SDS011;69168;42.708;23.286;2023-04-19T02:35:32;3.53;;;2.30;;
79697;SDS011;69168;42.708;23.286;2023-04-19T02:38:01;3.67;;;2.58;;
79697;SDS011;69168;42.708;23.286;2023-04-19T02:40:27;3.22;;;2.63;;
79697;SDS011;69168;42.708;23.286;2023-04-19T02:42:53;5.68;;;2.95;;
79697;SDS011;69168;42.708;23.286;2023-04-19T02:45:18;3.17;;;2.28;;
79697;SDS011;69168;42.708;23.286;2023-04-19T02:47:44;3.30;;;2.63;;
79697;SDS011;69168;42.708;23.286;2023-04-19T02:50:10;3.70;;;2.83;;
79697;SDS011;69168;42.708;23.286;2023-04-19T02:52:36;3.03;;;2.22;;
79697;SDS011;69168;42.708;23.286;2023-04-19T02:55:02;2.90;;;2.60;;
79697;SDS011;69168;42.708;23.286;2023-04-19T02:57:28;3.70;;;2.38;;
79697;SDS011;69168;42.708;23.286;2023-04-19T02:59:54;3.70;;;2.67;;
79697;SDS011;69168;42.708;23.286;2023-04-19T03:02:20;4.40;;;2.50;;
79697;SDS011;69168;42.708;23.286;2023-04-19T03:04:45;3.67;;;2.72;;
79697;SDS011;69168;42.708;23.286;2023-04-19T03:07:12;3.25;;;2.40;;
79697;SDS011;69168;42.708;23.286;2023-04-19T03:09:37;4.32;;;2.83;;
79697;SDS011;69168;42.708;23.286;2023-04-19T03:12:03;4.25;;;2.70;;
79697;SDS011;69168;42.708;23.286;2023-04-19T03:14:29;3.33;;;2.47;;
79697;SDS011;69168;42.708;23.286;2023-04-19T03:16:54;2.95;;;2.35;;
79697;SDS011;69168;42.708;23.286;2023-04-19T03:19:20;4.30;;;2.88;;
79697;SDS011;69168;42.708;23.286;2023-04-19T03:21:45;4.85;;;2.45;;
79697;SDS011;69168;42.708;23.286;2023-04-19T03:24:12;6.15;;;2.85;;
79697;SDS011;69168;42.708;23.286;2023-04-19T03:26:37;4.68;;;2.88;;
79697;SDS011;69168;42.708;23.286;2023-04-19T03:29:03;4.25;;;3.00;;
79697;SDS011;69168;42.708;23.286;2023-04-19T03:31:28;4.43;;;2.97;;
79697;SDS011;69168;42.708;23.286;2023-04-19T03:33:54;3.47;;;2.60;;
79697;SDS011;69168;42.708;23.286;2023-04-19T03:36:20;3.50;;;2.88;;
79697;SDS011;69168;42.708;23.286;2023-04-19T03:38:45;3.28;;;2.65;;
79697;SDS011;69168;42.708;23.286;2023-04-19T03:41:21;3.83;;;2.83;;
79697;SDS011;69168;42.708;23.286;2023-04-19T03:43:47;4.47;;;3.00;;
79697;SDS011;69168;42.708;23.286;2023-04-19T03:46:13;3.60;;;2.80;;
79697;SDS011;69168;42.708;23.286;2023-04-19T03:48:38;5.88;;;2.53;;
79697;SDS011;69168;42.708;23.286;2023-04-19T03:51:04;5.50;;;2.83;;
79697;SDS011;69168;42.708;23.286;2023-04-19T03:53:29;4.28;;;3.30;;
79697;SDS011;69168;42.708;23.286;2023-04-19T03:55:55;5.18;;;3.08;;
79697;SDS011;69168;42.708;23.286;2023-04-19T03:58:20;3.83;;;2.85;;
79697;SDS011;69168;42.708;23.286;2023-04-19T04:00:46;5.20;;;3.15;;
79697;SDS011;69168;42.708;23.286;2023-04-19T04:03:12;7.82;;;3.30;;
79697;SDS011;69168;42.708;23.286;2023-04-19T04:05:37;4.28;;;2.80;;
79697;SDS011;69168;42.708;23.286;2023-04-19T04:08:03;4.57;;;2.85;;
79697;SDS011;69168;42.708;23.286;2023-04-19T04:10:28;5.32;;;2.95;;
79697;SDS011;69168;42.708;23.286;2023-04-19T04:12:54;3.83;;;3.10;;
79697;SDS011;69168;42.708;23.286;2023-04-19T04:15:19;4.43;;;3.70;;
79697;SDS011;69168;42.708;23.286;2023-04-19T04:17:45;5.25;;;3.05;;
79697;SDS011;69168;42.708;23.286;2023-04-19T04:20:10;4.18;;;3.05;;
79697;SDS011;69168;42.708;23.286;2023-04-19T04:22:46;5.38;;;3.60;;
79697;SDS011;69168;42.708;23.286;2023-04-19T04:25:11;5.07;;;3.60;;
79697;SDS011;69168;42.708;23.286;2023-04-19T04:27:39;5.43;;;3.42;;
79697;SDS011;69168;42.708;23.286;2023-04-19T04:30:07;5.55;;;3.50;;
79697;SDS011;69168;42.708;23.286;2023-04-19T04:32:33;5.13;;;3.17;;
79697;SDS011;69168;42.708;23.286;2023-04-19T04:35:02;5.53;;;3.28;;
79697;SDS011;69168;42.708;23.286;2023-04-19T04:37:30;5.47;;;3.47;;
79697;SDS011;69168;42.708;23.286;2023-04-19T04:39:58;6.53;;;3.90;;
79697;SDS011;69168;42.708;23.286;2023-04-19T04:42:29;6.13;;;3.72;;
79697;SDS011;69168;42.708;23.286;2023-04-19T04:44:55;5.28;;;3.53;;
79697;SDS011;69168;42.708;23.286;2023-04-19T04:47:29;5.07;;;3.47;;
79697;SDS011;69168;42.708;23.286;2023-04-19T04:49:55;6.25;;;3.53;;
79697;SDS011;69168;42.708;23.286;2023-04-19T04:52:21;6.95;;;4.60;;
79697;SDS011;69168;42.708;23.286;2023-04-19T04:54:46;6.05;;;4.20;;
79697;SDS011;69168;42.708;23.286;2023-04-19T04:57:11;5.37;;;3.47;;
79697;SDS011;69168;42.708;23.286;2023-04-19T04:59:37;6.40;;;3.85;;
79697;SDS011;69168;42.708;23.286;2023-04-19T05:02:02;5.47;;;3.25;;
79697;SDS011;69168;42.708;23.286;2023-04-19T05:04:28;5.22;;;3.63;;
79697;SDS011;69168;42.708;23.286;2023-04-19T05:06:53;5.57;;;3.72;;
79697;SDS011;69168;42.708;23.286;2023-04-19T05:09:19;4.75;;;3.55;;
79697;SDS011;69168;42.708;23.286;2023-04-19T05:11:44;4.43;;;3.10;;
79697;SDS011;69168;42.708;23.286;2023-04-19T05:14:10;4.93;;;3.38;;
79697;SDS011;69168;42.708;23.286;2023-04-19T05:16:36;5.05;;;3.30;;
79697;SDS011;69168;42.708;23.286;2023-04-19T05:19:02;4.82;;;3.45;;
79697;SDS011;69168;42.708;23.286;2023-04-19T05:21:27;6.00;;;3.28;;
79697;SDS011;69168;42.708;23.286;2023-04-19T05:23:52;4.07;;;3.05;;
79697;SDS011;69168;42.708;23.286;2023-04-19T05:26:18;5.18;;;3.10;;
79697;SDS011;69168;42.708;23.286;2023-04-19T05:28:44;5.32;;;3.55;;
79697;SDS011;69168;42.708;23.286;2023-04-19T05:31:10;4.55;;;3.40;;
79697;SDS011;69168;42.708;23.286;2023-04-19T05:33:36;6.18;;;3.40;;
79697;SDS011;69168;42.708;23.286;2023-04-19T05:36:02;5.65;;;3.10;;
79697;SDS011;69168;42.708;23.286;2023-04-19T05:38:27;5.63;;;3.45;;
79697;SDS011;69168;42.708;23.286;2023-04-19T05:40:53;6.10;;;4.18;;
79697;SDS011;69168;42.708;23.286;2023-04-19T05:43:18;4.57;;;3.17;;
79697;SDS011;69168;42.708;23.286;2023-04-19T05:45:44;5.03;;;3.55;;
79697;SDS011;69168;42.708;23.286;2023-04-19T05:48:09;5.38;;;3.75;;
79697;SDS011;69168;42.708;23.286;2023-04-19T05:50:35;4.30;;;3.20;;
79697;SDS011;69168;42.708;23.286;2023-04-19T05:53:01;5.80;;;3.67;;
79697;SDS011;69168;42.708;23.286;2023-04-19T05:55:27;6.32;;;3.80;;
79697;SDS011;69168;42.708;23.286;2023-04-19T05:57:52;6.95;;;3.92;;
79697;SDS011;69168;42.708;23.286;2023-04-19T06:00:17;5.18;;;3.47;;
79697;SDS011;69168;42.708;23.286;2023-04-19T06:02:43;4.53;;;3.58;;
79697;SDS011;69168;42.708;23.286;2023-04-19T06:05:09;4.72;;;3.20;;
79697;SDS011;69168;42.708;23.286;2023-04-19T06:07:34;4.93;;;3.10;;
79697;SDS011;69168;42.708;23.286;2023-04-19T06:10:00;6.25;;;3.45;;
79697;SDS011;69168;42.708;23.286;2023-04-19T06:12:26;4.80;;;3.50;;
79697;SDS011;69168;42.708;23.286;2023-04-19T06:14:51;4.90;;;3.50;;
79697;SDS011;69168;42.708;23.286;2023-04-19T06:17:17;4.93;;;3.25;;
79697;SDS011;69168;42.708;23.286;2023-04-19T06:19:47;9.10;;;3.40;;
79697;SDS011;69168;42.708;23.286;2023-04-19T06:22:13;5.28;;;2.83;;
79697;SDS011;69168;42.708;23.286;2023-04-19T06:24:38;4.18;;;3.28;;
79697;SDS011;69168;42.708;23.286;2023-04-19T06:27:04;5.05;;;3.17;;
79697;SDS011;69168;42.708;23.286;2023-04-19T06:29:29;8.50;;;3.17;;
79697;SDS011;69168;42.708;23.286;2023-04-19T06:31:54;6.50;;;3.13;;
79697;SDS011;69168;42.708;23.286;2023-04-19T06:34:20;4.07;;;2.80;;
79697;SDS011;69168;42.708;23.286;2023-04-19T06:36:45;6.15;;;3.63;;
79697;SDS011;69168;42.708;23.286;2023-04-19T06:39:11;5.47;;;3.45;;
79697;SDS011;69168;42.708;23.286;2023-04-19T06:41:36;6.40;;;3.78;;
79697;SDS011;69168;42.708;23.286;2023-04-19T06:44:02;5.47;;;3.47;;
79697;SDS011;69168;42.708;23.286;2023-04-19T06:46:27;3.70;;;2.70;;
79697;SDS011;69168;42.708;23.286;2023-04-19T06:48:53;5.30;;;3.30;;
79697;SDS011;69168;42.708;23.286;2023-04-19T06:51:21;4.90;;;3.20;;
79697;SDS011;69168;42.708;23.286;2023-04-19T06:53:48;4.65;;;2.55;;
79697;SDS011;69168;42.708;23.286;2023-04-19T06:56:13;5.90;;;3.63;;
79697;SDS011;69168;42.708;23.286;2023-04-19T06:58:39;4.38;;;2.80;;
79697;SDS011;69168;42.708;23.286;2023-04-19T07:01:04;5.45;;;3.40;;
79697;SDS011;69168;42.708;23.286;2023-04-19T07:03:30;8.13;;;3.85;;
79697;SDS011;69168;42.708;23.286;2023-04-19T07:05:56;7.22;;;3.22;;
79697;SDS011;69168;42.708;23.286;2023-04-19T07:08:22;3.75;;;2.55;;
79697;SDS011;69168;42.708;23.286;2023-04-19T07:10:48;6.00;;;3.05;;
79697;SDS011;69168;42.708;23.286;2023-04-19T07:13:13;4.72;;;2.78;;
79697;SDS011;69168;42.708;23.286;2023-04-19T07:15:39;4.65;;;3.28;;
79697;SDS011;69168;42.708;23.286;2023-04-19T07:18:04;4.32;;;2.78;;
79697;SDS011;69168;42.708;23.286;2023-04-19T07:20:30;3.72;;;2.65;;
79697;SDS011;69168;42.708;23.286;2023-04-19T07:22:58;4.25;;;2.78;;
79697;SDS011;69168;42.708;23.286;2023-04-19T07:25:24;4.97;;;3.20;;
79697;SDS011;69168;42.708;23.286;2023-04-19T07:27:53;4.82;;;3.30;;
79697;SDS011;69168;42.708;23.286;2023-04-19T07:30:20;6.57;;;2.90;;
79697;SDS011;69168;42.708;23.286;2023-04-19T07:32:46;4.85;;;3.30;;
79697;SDS011;69168;42.708;23.286;2023-04-19T07:35:11;3.95;;;2.53;;
79697;SDS011;69168;42.708;23.286;2023-04-19T07:37:37;3.83;;;2.63;;
79697;SDS011;69168;42.708;23.286;2023-04-19T07:40:03;4.18;;;2.78;;
79697;SDS011;69168;42.708;23.286;2023-04-19T07:42:29;3.97;;;2.53;;
79697;SDS011;69168;42.708;23.286;2023-04-19T07:44:55;4.03;;;2.47;;
79697;SDS011;69168;42.708;23.286;2023-04-19T07:47:20;5.45;;;3.67;;
79697;SDS011;69168;42.708;23.286;2023-04-19T07:49:46;5.10;;;2.97;;
79697;SDS011;69168;42.708;23.286;2023-04-19T07:52:16;6.10;;;3.00;;
79697;SDS011;69168;42.708;23.286;2023-04-19T07:54:42;4.03;;;2.30;;
79697;SDS011;69168;42.708;23.286;2023-04-19T07:57:08;4.53;;;2.97;;
79697;SDS011;69168;42.708;23.286;2023-04-19T07:59:33;3.17;;;2.28;;
79697;SDS011;69168;42.708;23.286;2023-04-19T08:01:59;3.80;;;2.38;;
79697;SDS011;69168;42.708;23.286;2023-04-19T08:04:24;4.30;;;2.45;;
79697;SDS011;69168;42.708;23.286;2023-04-19T08:06:50;7.40;;;2.78;;
79697;SDS011;69168;42.708;23.286;2023-04-19T08:09:16;5.22;;;2.47;;
79697;SDS011;69168;42.708;23.286;2023-04-19T08:11:42;3.28;;;2.55;;
79697;SDS011;69168;42.708;23.286;2023-04-19T08:14:08;5.30;;;2.97;;
79697;SDS011;69168;42.708;23.286;2023-04-19T08:16:33;3.92;;;2.38;;
79697;SDS011;69168;42.708;23.286;2023-04-19T08:18:59;4.35;;;2.33;;
79697;SDS011;69168;42.708;23.286;2023-04-19T08:21:25;3.73;;;2.30;;
79697;SDS011;69168;42.708;23.286;2023-04-19T08:23:51;4.63;;;2.60;;
79697;SDS011;69168;42.708;23.286;2023-04-19T08:26:16;3.03;;;2.00;;
79697;SDS011;69168;42.708;23.286;2023-04-19T08:28:42;5.25;;;2.28;;
79697;SDS011;69168;42.708;23.286;2023-04-19T08:31:07;3.38;;;2.50;;
79697;SDS011;69168;42.708;23.286;2023-04-19T08:33:33;4.03;;;2.33;;
79697;SDS011;69168;42.708;23.286;2023-04-19T08:35:58;4.97;;;2.10;;
79697;SDS011;69168;42.708;23.286;2023-04-19T08:38:24;3.78;;;2.25;;
79697;SDS011;69168;42.708;23.286;2023-04-19T08:40:53;3.63;;;2.47;;
79697;SDS011;69168;42.708;23.286;2023-04-19T08:43:19;3.05;;;2.15;;
79697;SDS011;69168;42.708;23.286;2023-04-19T08:45:48;4.05;;;2.50;;
79697;SDS011;69168;42.708;23.286;2023-04-19T08:48:15;4.90;;;2.80;;
79697;SDS011;69168;42.708;23.286;2023-04-19T08:50:42;2.25;;;1.67;;
79697;SDS011;69168;42.708;23.286;2023-04-19T08:53:08;2.40;;;1.95;;
79697;SDS011;69168;42.708;23.286;2023-04-19T08:55:35;3.50;;;2.45;;
79697;SDS011;69168;42.708;23.286;2023-04-19T08:58:03;4.47;;;2.30;;
79697;SDS011;69168;42.708;23.286;2023-04-19T09:00:29;2.42;;;1.80;;
79697;SDS011;69168;42.708;23.286;2023-04-19T09:03:01;5.60;;;2.22;;
79697;SDS011;69168;42.708;23.286;2023-04-19T09:05:27;2.25;;;1.75;;
79697;SDS011;69168;42.708;23.286;2023-04-19T09:07:53;2.00;;;1.80;;
79697;SDS011;69168;42.708;23.286;2023-04-19T09:10:38;4.43;;;1.63;;
79697;SDS011;69168;42.708;23.286;2023-04-19T09:13:16;3.40;;;1.60;;
79697;SDS011;69168;42.708;23.286;2023-04-19T09:15:42;3.50;;;1.77;;
79697;SDS011;69168;42.708;23.286;2023-04-19T09:18:09;2.00;;;1.60;;
79697;SDS011;69168;42.708;23.286;2023-04-19T09:20:39;3.58;;;1.80;;
79697;SDS011;69168;42.708;23.286;2023-04-19T09:23:06;4.20;;;1.60;;
79697;SDS011;69168;42.708;23.286;2023-04-19T09:25:33;2.33;;;1.92;;
79697;SDS011;69168;42.708;23.286;2023-04-19T09:30:38;4.28;;;2.30;;
79697;SDS011;69168;42.708;23.286;2023-04-19T09:33:04;1.90;;;1.52;;
79697;SDS011;69168;42.708;23.286;2023-04-19T09:35:42;5.35;;;1.98;;
79697;SDS011;69168;42.708;23.286;2023-04-19T09:38:11;3.05;;;1.60;;
79697;SDS011;69168;42.708;23.286;2023-04-19T09:40:37;2.55;;;1.98;;
79697;SDS011;69168;42.708;23.286;2023-04-19T09:45:38;4.10;;;1.80;;
79697;SDS011;69168;42.708;23.286;2023-04-19T09:48:06;3.20;;;1.83;;
79697;SDS011;69168;42.708;23.286;2023-04-19T09:50:32;3.38;;;1.73;;
79697;SDS011;69168;42.708;23.286;2023-04-19T09:52:58;2.00;;;1.33;;
79697;SDS011;69168;42.708;23.286;2023-04-19T09:55:24;2.03;;;1.67;;
79697;SDS011;69168;42.708;23.286;2023-04-19T09:57:51;1.98;;;1.42;;
79697;SDS011;69168;42.708;23.286;2023-04-19T10:00:17;1.92;;;1.50;;
79697;SDS011;69168;42.708;23.286;2023-04-19T10:02:42;2.50;;;1.73;;
79697;SDS011;69168;42.708;23.286;2023-04-19T10:05:11;2.90;;;1.73;;
79697;SDS011;69168;42.708;23.286;2023-04-19T10:07:39;3.38;;;1.98;;
79697;SDS011;69168;42.708;23.286;2023-04-19T10:10:08;2.88;;;1.88;;
79697;SDS011;69168;42.708;23.286;2023-04-19T10:12:34;3.00;;;2.22;;
79697;SDS011;69168;42.708;23.286;2023-04-19T10:15:00;2.42;;;1.70;;
79697;SDS011;69168;42.708;23.286;2023-04-19T10:17:25;2.15;;;1.50;;
79697;SDS011;69168;42.708;23.286;2023-04-19T10:19:54;2.47;;;1.80;;
79697;SDS011;69168;42.708;23.286;2023-04-19T10:22:43;3.20;;;1.58;;
79697;SDS011;69168;42.708;23.286;2023-04-19T10:25:12;3.17;;;1.75;;
79697;SDS011;69168;42.708;23.286;2023-04-19T10:27:45;2.28;;;1.80;;
79697;SDS011;69168;42.708;23.286;2023-04-19T10:30:16;5.47;;;1.77;;
79697;SDS011;69168;42.708;23.286;2023-04-19T10:32:51;3.22;;;1.77;;
79697;SDS011;69168;42.708;23.286;2023-04-19T10:35:41;3.20;;;2.22;;
79697;SDS011;69168;42.708;23.286;2023-04-19T10:38:09;4.00;;;2.03;;
79697;SDS011;69168;42.708;23.286;2023-04-19T10:40:56;3.00;;;2.10;;
79697;SDS011;69168;42.708;23.286;2023-04-19T10:43:23;2.50;;;1.35;;
79697;SDS011;69168;42.708;23.286;2023-04-19T10:45:49;2.88;;;1.92;;
79697;SDS011;69168;42.708;23.286;2023-04-19T10:50:59;3.00;;;2.08;;
79697;SDS011;69168;42.708;23.286;2023-04-19T10:56:19;2.88;;;2.08;;
79697;SDS011;69168;42.708;23.286;2023-04-19T11:06:56;5.15;;;2.05;;
79697;SDS011;69168;42.708;23.286;2023-04-19T11:12:05;2.45;;;1.75;;
79697;SDS011;69168;42.708;23.286;2023-04-19T11:14:47;2.92;;;2.17;;
79697;SDS011;69168;42.708;23.286;2023-04-19T11:19:51;2.28;;;1.70;;
79697;SDS011;69168;42.708;23.286;2023-04-19T11:22:17;2.53;;;1.65;;
79697;SDS011;69168;42.708;23.286;2023-04-19T11:24:45;2.17;;;1.98;;
79697;SDS011;69168;42.708;23.286;2023-04-19T11:27:12;2.95;;;1.70;;
79697;SDS011;69168;42.708;23.286;2023-04-19T11:29:37;4.70;;;2.30;;
79697;SDS011;69168;42.708;23.286;2023-04-19T11:32:03;3.25;;;2.15;;
79697;SDS011;69168;42.708;23.286;2023-04-19T11:34:33;2.13;;;1.83;;
79697;SDS011;69168;42.708;23.286;2023-04-19T11:37:00;3.42;;;1.67;;
79697;SDS011;69168;42.708;23.286;2023-04-19T11:39:25;2.30;;;1.23;;
79697;SDS011;69168;42.708;23.286;2023-04-19T11:41:51;2.38;;;1.65;;
79697;SDS011;69168;42.708;23.286;2023-04-19T11:44:17;4.03;;;1.67;;
79697;SDS011;69168;42.708;23.286;2023-04-19T11:49:28;2.88;;;1.95;;
79697;SDS011;69168;42.708;23.286;2023-04-19T11:51:57;2.60;;;1.80;;
79697;SDS011;69168;42.708;23.286;2023-04-19T11:54:29;2.58;;;1.50;;
79697;SDS011;69168;42.708;23.286;2023-04-19T11:56:55;2.53;;;1.45;;
79697;SDS011;69168;42.708;23.286;2023-04-19T11:59:22;2.42;;;1.48;;
79697;SDS011;69168;42.708;23.286;2023-04-19T12:01:47;1.65;;;1.40;;
79697;SDS011;69168;42.708;23.286;2023-04-19T12:04:12;2.08;;;1.50;;
79697;SDS011;69168;42.708;23.286;2023-04-19T12:06:38;1.52;;;1.40;;
79697;SDS011;69168;42.708;23.286;2023-04-19T12:09:05;1.95;;;1.35;;
79697;SDS011;69168;42.708;23.286;2023-04-19T12:11:43;1.65;;;1.30;;
79697;SDS011;69168;42.708;23.286;2023-04-19T12:14:11;1.85;;;1.20;;
79697;SDS011;69168;42.708;23.286;2023-04-19T12:16:37;1.70;;;1.40;;
79697;SDS011;69168;42.708;23.286;2023-04-19T12:19:16;3.15;;;1.50;;
79697;SDS011;69168;42.708;23.286;2023-04-19T12:21:44;1.88;;;1.65;;
79697;SDS011;69168;42.708;23.286;2023-04-19T12:24:10;2.67;;;1.58;;
79697;SDS011;69168;42.708;23.286;2023-04-19T12:26:51;2.28;;;1.77;;
79697;SDS011;69168;42.708;23.286;2023-04-19T12:29:19;3.58;;;2.20;;
79697;SDS011;69168;42.708;23.286;2023-04-19T12:31:44;2.30;;;1.87;;
79697;SDS011;69168;42.708;23.286;2023-04-19T12:34:10;1.77;;;1.65;;
79697;SDS011;69168;42.708;23.286;2023-04-19T12:36:35;3.05;;;2.53;;
79697;SDS011;69168;42.708;23.286;2023-04-19T12:39:01;3.72;;;2.50;;
79697;SDS011;69168;42.708;23.286;2023-04-19T12:41:26;4.00;;;2.60;;
79697;SDS011;69168;42.708;23.286;2023-04-19T12:43:52;6.10;;;3.22;;
79697;SDS011;69168;42.708;23.286;2023-04-19T12:46:17;5.72;;;3.58;;
79697;SDS011;69168;42.708;23.286;2023-04-19T12:48:42;5.45;;;4.07;;
79697;SDS011;69168;42.708;23.286;2023-04-19T12:51:08;7.03;;;4.80;;
79697;SDS011;69168;42.708;23.286;2023-04-19T12:53:33;6.85;;;4.60;;
79697;SDS011;69168;42.708;23.286;2023-04-19T12:55:59;4.93;;;3.50;;
79697;SDS011;69168;42.708;23.286;2023-04-19T12:58:24;5.72;;;3.42;;
79697;SDS011;69168;42.708;23.286;2023-04-19T13:00:52;3.30;;;1.75;;
79697;SDS011;69168;42.708;23.286;2023-04-19T13:03:17;4.25;;;1.65;;
79697;SDS011;69168;42.708;23.286;2023-04-19T13:05:42;3.42;;;1.77;;
79697;SDS011;69168;42.708;23.286;2023-04-19T13:08:08;3.65;;;1.70;;
79697;SDS011;69168;42.708;23.286;2023-04-19T13:10:33;3.95;;;1.33;;
79697;SDS011;69168;42.708;23.286;2023-04-19T13:12:59;2.97;;;1.20;;
79697;SDS011;69168;42.708;23.286;2023-04-19T13:15:24;1.92;;;1.10;;
79697;SDS011;69168;42.708;23.286;2023-04-19T13:17:50;1.38;;;1.02;;
79697;SDS011;69168;42.708;23.286;2023-04-19T13:20:17;1.90;;;1.15;;
79697;SDS011;69168;42.708;23.286;2023-04-19T13:22:44;2.10;;;1.30;;
79697;SDS011;69168;42.708;23.286;2023-04-19T13:25:09;1.58;;;1.30;;
79697;SDS011;69168;42.708;23.286;2023-04-19T13:27:35;2.42;;;1.30;;
79697;SDS011;69168;42.708;23.286;2023-04-19T13:30:00;3.88;;;1.60;;
79697;SDS011;69168;42.708;23.286;2023-04-19T13:32:26;2.80;;;1.33;;
79697;SDS011;69168;42.708;23.286;2023-04-19T13:34:51;1.52;;;1.42;;
79697;SDS011;69168;42.708;23.286;2023-04-19T13:37:17;1.65;;;1.00;;
79697;SDS011;69168;42.708;23.286;2023-04-19T13:39:42;1.55;;;1.08;;
79697;SDS011;69168;42.708;23.286;2023-04-19T13:42:08;2.88;;;1.42;;
79697;SDS011;69168;42.708;23.286;2023-04-19T13:44:33;2.63;;;1.20;;
79697;SDS011;69168;42.708;23.286;2023-04-19T13:46:59;1.27;;;1.00;;
79697;SDS011;69168;42.708;23.286;2023-04-19T13:49:25;3.53;;;1.02;;
79697;SDS011;69168;42.708;23.286;2023-04-19T13:51:50;1.92;;;1.23;;
79697;SDS011;69168;42.708;23.286;2023-04-19T13:54:16;1.50;;;1.02;;
79697;SDS011;69168;42.708;23.286;2023-04-19T13:56:42;1.95;;;1.05;;
79697;SDS011;69168;42.708;23.286;2023-04-19T13:59:08;1.85;;;1.15;;
79697;SDS011;69168;42.708;23.286;2023-04-19T14:01:34;1.33;;;1.10;;
79697;SDS011;69168;42.708;23.286;2023-04-19T14:04:00;2.38;;;1.20;;
79697;SDS011;69168;42.708;23.286;2023-04-19T14:06:25;2.22;;;1.23;;
79697;SDS011;69168;42.708;23.286;2023-04-19T14:08:51;3.78;;;1.48;;
79697;SDS011;69168;42.708;23.286;2023-04-19T14:11:17;1.95;;;1.50;;
79697;SDS011;69168;42.708;23.286;2023-04-19T14:13:42;1.83;;;1.20;;
79697;SDS011;69168;42.708;23.286;2023-04-19T14:16:09;3.30;;;1.75;;
79697;SDS011;69168;42.708;23.286;2023-04-19T14:18:34;2.85;;;2.00;;
79697;SDS011;69168;42.708;23.286;2023-04-19T14:20:59;3.03;;;1.60;;
79697;SDS011;69168;42.708;23.286;2023-04-19T14:23:25;1.92;;;1.52;;
79697;SDS011;69168;42.708;23.286;2023-04-19T14:25:51;2.10;;;1.60;;
79697;SDS011;69168;42.708;23.286;2023-04-19T14:28:17;2.55;;;1.40;;
79697;SDS011;69168;42.708;23.286;2023-04-19T14:30:42;4.78;;;1.38;;
79697;SDS011;69168;42.708;23.286;2023-04-19T14:33:08;2.97;;;1.73;;
79697;SDS011;69168;42.708;23.286;2023-04-19T14:35:34;3.38;;;1.58;;
79697;SDS011;69168;42.708;23.286;2023-04-19T14:37:59;3.22;;;1.40;;
79697;SDS011;69168;42.708;23.286;2023-04-19T14:40:25;4.43;;;1.65;;
79697;SDS011;69168;42.708;23.286;2023-04-19T14:42:51;2.80;;;2.00;;
79697;SDS011;69168;42.708;23.286;2023-04-19T14:45:17;3.58;;;1.45;;
79697;SDS011;69168;42.708;23.286;2023-04-19T14:47:43;3.60;;;1.73;;
79697;SDS011;69168;42.708;23.286;2023-04-19T14:50:08;4.82;;;1.75;;
79697;SDS011;69168;42.708;23.286;2023-04-19T14:52:34;6.50;;;3.65;;
79697;SDS011;69168;42.708;23.286;2023-04-19T14:54:59;5.85;;;1.80;;
79697;SDS011;69168;42.708;23.286;2023-04-19T14:57:28;2.22;;;1.63;;